sensor_id;sensor_type;location;lat;lon;timestamp;P1;durP1;ratioP1;P2;durP2;ratioP2
57573;SDS011;68988;49.000;21.242;2024-02-26T00:01:48;1.20;;;1.20;;
57573;SDS011;68988;49.000;21.242;2024-02-26T00:04:13;1.35;;;1.30;;
57573;SDS011;68988;49.000;21.242;2024-02-26T00:06:39;1.20;;;1.20;;
57573;SDS011;68988;49.000;21.242;2024-02-26T00:09:07;1.35;;;1.35;;
57573;SDS011;68988;49.000;21.242;2024-02-26T00:11:34;1.73;;;1.63;;
57573;SDS011;68988;49.000;21.242;2024-02-26T00:14:03;1.48;;;1.38;;
57573;SDS011;68988;49.000;21.242;2024-02-26T00:16:29;1.30;;;1.30;;
57573;SDS011;68988;49.000;21.242;2024-02-26T00:18:55;1.42;;;1.33;;
57573;SDS011;68988;49.000;21.242;2024-02-26T00:21:20;1.40;;;1.38;;
57573;SDS011;68988;49.000;21.242;2024-02-26T00:23:46;1.50;;;1.40;;
57573;SDS011;68988;49.000;21.242;2024-02-26T00:26:11;1.08;;;1.08;;
57573;SDS011;68988;49.000;21.242;2024-02-26T00:28:37;1.50;;;1.40;;
57573;SDS011;68988;49.000;21.242;2024-02-26T00:31:02;1.30;;;1.30;;
57573;SDS011;68988;49.000;21.242;2024-02-26T00:33:28;1.63;;;1.52;;
57573;SDS011;68988;49.000;21.242;2024-02-26T00:35:53;1.50;;;1.40;;
57573;SDS011;68988;49.000;21.242;2024-02-26T00:38:19;1.33;;;1.33;;
57573;SDS011;68988;49.000;21.242;2024-02-26T00:40:45;1.00;;;1.00;;
57573;SDS011;68988;49.000;21.242;2024-02-26T00:43:10;1.65;;;1.55;;
57573;SDS011;68988;49.000;21.242;2024-02-26T00:45:36;1.30;;;1.30;;
57573;SDS011;68988;49.000;21.242;2024-02-26T00:48:01;1.10;;;1.10;;
57573;SDS011;68988;49.000;21.242;2024-02-26T00:50:30;1.30;;;1.30;;
57573;SDS011;68988;49.000;21.242;2024-02-26T00:52:56;1.20;;;1.20;;
57573;SDS011;68988;49.000;21.242;2024-02-26T00:55:21;1.38;;;1.27;;
57573;SDS011;68988;49.000;21.242;2024-02-26T00:57:47;1.33;;;1.33;;
57573;SDS011;68988;49.000;21.242;2024-02-26T01:00:12;1.30;;;1.30;;
57573;SDS011;68988;49.000;21.242;2024-02-26T01:02:38;1.40;;;1.40;;
57573;SDS011;68988;49.000;21.242;2024-02-26T01:05:05;1.30;;;1.30;;
57573;SDS011;68988;49.000;21.242;2024-02-26T01:07:31;1.20;;;1.20;;
57573;SDS011;68988;49.000;21.242;2024-02-26T01:10:00;1.30;;;1.30;;
57573;SDS011;68988;49.000;21.242;2024-02-26T01:12:30;1.50;;;1.40;;
57573;SDS011;68988;49.000;21.242;2024-02-26T01:14:56;1.30;;;1.30;;
57573;SDS011;68988;49.000;21.242;2024-02-26T01:17:21;1.02;;;1.02;;
57573;SDS011;68988;49.000;21.242;2024-02-26T01:19:47;1.52;;;1.20;;
57573;SDS011;68988;49.000;21.242;2024-02-26T01:22:12;1.67;;;1.58;;
57573;SDS011;68988;49.000;21.242;2024-02-26T01:24:38;1.30;;;1.30;;
57573;SDS011;68988;49.000;21.242;2024-02-26T01:27:03;1.40;;;1.40;;
57573;SDS011;68988;49.000;21.242;2024-02-26T01:29:29;1.23;;;1.23;;
57573;SDS011;68988;49.000;21.242;2024-02-26T01:31:54;1.33;;;1.33;;
57573;SDS011;68988;49.000;21.242;2024-02-26T01:34:20;1.52;;;1.40;;
57573;SDS011;68988;49.000;21.242;2024-02-26T01:36:45;1.42;;;1.42;;
57573;SDS011;68988;49.000;21.242;2024-02-26T01:39:11;1.13;;;1.13;;
57573;SDS011;68988;49.000;21.242;2024-02-26T01:41:37;1.52;;;1.50;;
57573;SDS011;68988;49.000;21.242;2024-02-26T01:44:04;1.10;;;1.10;;
57573;SDS011;68988;49.000;21.242;2024-02-26T01:46:29;1.52;;;1.48;;
57573;SDS011;68988;49.000;21.242;2024-02-26T01:48:57;1.63;;;1.55;;
57573;SDS011;68988;49.000;21.242;2024-02-26T01:51:23;1.25;;;1.25;;
57573;SDS011;68988;49.000;21.242;2024-02-26T01:53:48;1.58;;;1.50;;
57573;SDS011;68988;49.000;21.242;2024-02-26T01:56:14;1.40;;;1.40;;
57573;SDS011;68988;49.000;21.242;2024-02-26T01:58:42;1.38;;;1.38;;
57573;SDS011;68988;49.000;21.242;2024-02-26T02:01:08;1.33;;;1.33;;
57573;SDS011;68988;49.000;21.242;2024-02-26T02:03:34;1.50;;;1.50;;
57573;SDS011;68988;49.000;21.242;2024-02-26T02:06:01;1.38;;;1.38;;
57573;SDS011;68988;49.000;21.242;2024-02-26T02:08:27;1.30;;;1.30;;
57573;SDS011;68988;49.000;21.242;2024-02-26T02:10:53;1.30;;;1.30;;
57573;SDS011;68988;49.000;21.242;2024-02-26T02:13:18;1.45;;;1.45;;
57573;SDS011;68988;49.000;21.242;2024-02-26T02:15:44;1.33;;;1.30;;
57573;SDS011;68988;49.000;21.242;2024-02-26T02:18:09;1.20;;;1.20;;
57573;SDS011;68988;49.000;21.242;2024-02-26T02:20:35;1.35;;;1.35;;
57573;SDS011;68988;49.000;21.242;2024-02-26T02:23:01;1.30;;;1.30;;
57573;SDS011;68988;49.000;21.242;2024-02-26T02:25:27;1.17;;;1.15;;
57573;SDS011;68988;49.000;21.242;2024-02-26T02:27:53;1.30;;;1.30;;
57573;SDS011;68988;49.000;21.242;2024-02-26T02:30:27;1.40;;;1.40;;
57573;SDS011;68988;49.000;21.242;2024-02-26T02:32:54;1.40;;;1.40;;
57573;SDS011;68988;49.000;21.242;2024-02-26T02:35:20;1.20;;;1.20;;
57573;SDS011;68988;49.000;21.242;2024-02-26T02:37:46;1.55;;;1.45;;
57573;SDS011;68988;49.000;21.242;2024-02-26T02:40:11;1.20;;;1.20;;
57573;SDS011;68988;49.000;21.242;2024-02-26T02:42:36;1.30;;;1.30;;
57573;SDS011;68988;49.000;21.242;2024-02-26T02:45:02;1.30;;;1.30;;
57573;SDS011;68988;49.000;21.242;2024-02-26T02:47:27;1.40;;;1.40;;
57573;SDS011;68988;49.000;21.242;2024-02-26T02:49:53;1.10;;;1.10;;
57573;SDS011;68988;49.000;21.242;2024-02-26T02:52:18;1.50;;;1.40;;
57573;SDS011;68988;49.000;21.242;2024-02-26T02:54:43;1.42;;;1.42;;
57573;SDS011;68988;49.000;21.242;2024-02-26T02:57:09;1.15;;;1.15;;
57573;SDS011;68988;49.000;21.242;2024-02-26T02:59:35;1.52;;;1.42;;
57573;SDS011;68988;49.000;21.242;2024-02-26T03:02:01;1.40;;;1.40;;
57573;SDS011;68988;49.000;21.242;2024-02-26T03:04:26;1.40;;;1.40;;
57573;SDS011;68988;49.000;21.242;2024-02-26T03:06:52;1.23;;;1.23;;
57573;SDS011;68988;49.000;21.242;2024-02-26T03:09:17;1.40;;;1.40;;
57573;SDS011;68988;49.000;21.242;2024-02-26T03:11:43;1.10;;;1.10;;
57573;SDS011;68988;49.000;21.242;2024-02-26T03:14:08;1.30;;;1.30;;
57573;SDS011;68988;49.000;21.242;2024-02-26T03:16:34;1.13;;;1.13;;
57573;SDS011;68988;49.000;21.242;2024-02-26T03:19:00;1.25;;;1.25;;
57573;SDS011;68988;49.000;21.242;2024-02-26T03:21:25;1.50;;;1.40;;
57573;SDS011;68988;49.000;21.242;2024-02-26T03:23:52;1.90;;;1.38;;
57573;SDS011;68988;49.000;21.242;2024-02-26T03:26:17;1.50;;;1.40;;
57573;SDS011;68988;49.000;21.242;2024-02-26T03:28:42;1.20;;;1.20;;
57573;SDS011;68988;49.000;21.242;2024-02-26T03:31:08;1.63;;;1.63;;
57573;SDS011;68988;49.000;21.242;2024-02-26T03:33:34;1.30;;;1.30;;
57573;SDS011;68988;49.000;21.242;2024-02-26T03:35:59;1.35;;;1.25;;
57573;SDS011;68988;49.000;21.242;2024-02-26T03:38:25;1.15;;;1.15;;
57573;SDS011;68988;49.000;21.242;2024-02-26T03:40:50;1.40;;;1.30;;
57573;SDS011;68988;49.000;21.242;2024-02-26T03:43:16;1.30;;;1.20;;
57573;SDS011;68988;49.000;21.242;2024-02-26T03:45:42;1.10;;;1.10;;
57573;SDS011;68988;49.000;21.242;2024-02-26T03:48:07;1.35;;;1.30;;
57573;SDS011;68988;49.000;21.242;2024-02-26T03:50:33;1.33;;;1.33;;
57573;SDS011;68988;49.000;21.242;2024-02-26T03:52:59;1.30;;;1.30;;
57573;SDS011;68988;49.000;21.242;2024-02-26T03:55:25;1.50;;;1.40;;
57573;SDS011;68988;49.000;21.242;2024-02-26T03:57:51;1.50;;;1.50;;
57573;SDS011;68988;49.000;21.242;2024-02-26T04:00:17;1.25;;;1.15;;
57573;SDS011;68988;49.000;21.242;2024-02-26T04:02:42;1.38;;;1.30;;
57573;SDS011;68988;49.000;21.242;2024-02-26T04:05:11;1.23;;;1.23;;
57573;SDS011;68988;49.000;21.242;2024-02-26T04:07:37;1.20;;;1.20;;
57573;SDS011;68988;49.000;21.242;2024-02-26T04:10:02;1.20;;;1.20;;
57573;SDS011;68988;49.000;21.242;2024-02-26T04:12:30;1.27;;;1.27;;
57573;SDS011;68988;49.000;21.242;2024-02-26T04:14:56;1.20;;;1.20;;
57573;SDS011;68988;49.000;21.242;2024-02-26T04:17:21;1.40;;;1.40;;
57573;SDS011;68988;49.000;21.242;2024-02-26T04:19:47;1.33;;;1.33;;
57573;SDS011;68988;49.000;21.242;2024-02-26T04:22:12;1.10;;;1.10;;
57573;SDS011;68988;49.000;21.242;2024-02-26T04:24:37;1.27;;;1.27;;
57573;SDS011;68988;49.000;21.242;2024-02-26T04:27:03;1.13;;;1.13;;
57573;SDS011;68988;49.000;21.242;2024-02-26T04:29:28;1.23;;;1.23;;
57573;SDS011;68988;49.000;21.242;2024-02-26T04:31:54;1.40;;;1.30;;
57573;SDS011;68988;49.000;21.242;2024-02-26T04:34:19;1.33;;;1.33;;
57573;SDS011;68988;49.000;21.242;2024-02-26T04:36:44;1.40;;;1.30;;
57573;SDS011;68988;49.000;21.242;2024-02-26T04:39:10;1.48;;;1.38;;
57573;SDS011;68988;49.000;21.242;2024-02-26T04:41:36;1.33;;;1.33;;
57573;SDS011;68988;49.000;21.242;2024-02-26T04:44:02;1.40;;;1.40;;
57573;SDS011;68988;49.000;21.242;2024-02-26T04:46:27;1.40;;;1.30;;
57573;SDS011;68988;49.000;21.242;2024-02-26T04:48:53;1.20;;;1.20;;
57573;SDS011;68988;49.000;21.242;2024-02-26T04:51:19;1.38;;;1.30;;
57573;SDS011;68988;49.000;21.242;2024-02-26T04:53:44;1.42;;;1.40;;
57573;SDS011;68988;49.000;21.242;2024-02-26T04:56:09;1.38;;;1.38;;
57573;SDS011;68988;49.000;21.242;2024-02-26T04:58:35;1.60;;;1.50;;
57573;SDS011;68988;49.000;21.242;2024-02-26T05:01:00;1.17;;;1.17;;
57573;SDS011;68988;49.000;21.242;2024-02-26T05:03:26;1.33;;;1.33;;
57573;SDS011;68988;49.000;21.242;2024-02-26T05:05:51;1.42;;;1.35;;
57573;SDS011;68988;49.000;21.242;2024-02-26T05:08:17;1.52;;;1.42;;
57573;SDS011;68988;49.000;21.242;2024-02-26T05:10:42;1.30;;;1.30;;
57573;SDS011;68988;49.000;21.242;2024-02-26T05:13:09;1.30;;;1.30;;
57573;SDS011;68988;49.000;21.242;2024-02-26T05:15:35;1.10;;;1.10;;
57573;SDS011;68988;49.000;21.242;2024-02-26T05:18:01;0.90;;;0.90;;
57573;SDS011;68988;49.000;21.242;2024-02-26T05:20:27;1.30;;;1.30;;
57573;SDS011;68988;49.000;21.242;2024-02-26T05:22:53;1.10;;;1.10;;
57573;SDS011;68988;49.000;21.242;2024-02-26T05:25:18;1.00;;;1.00;;
57573;SDS011;68988;49.000;21.242;2024-02-26T05:27:43;1.20;;;1.20;;
57573;SDS011;68988;49.000;21.242;2024-02-26T05:30:10;1.30;;;1.30;;
57573;SDS011;68988;49.000;21.242;2024-02-26T05:32:36;1.20;;;1.20;;
57573;SDS011;68988;49.000;21.242;2024-02-26T05:35:02;1.30;;;1.30;;
57573;SDS011;68988;49.000;21.242;2024-02-26T05:37:28;1.00;;;1.00;;
57573;SDS011;68988;49.000;21.242;2024-02-26T05:39:54;1.33;;;1.33;;
57573;SDS011;68988;49.000;21.242;2024-02-26T05:42:20;1.17;;;1.17;;
57573;SDS011;68988;49.000;21.242;2024-02-26T05:44:45;1.25;;;1.25;;
57573;SDS011;68988;49.000;21.242;2024-02-26T05:47:11;1.67;;;1.58;;
57573;SDS011;68988;49.000;21.242;2024-02-26T05:49:37;2.28;;;2.10;;
57573;SDS011;68988;49.000;21.242;2024-02-26T05:52:02;2.50;;;2.30;;
57573;SDS011;68988;49.000;21.242;2024-02-26T05:54:27;2.47;;;2.30;;
57573;SDS011;68988;49.000;21.242;2024-02-26T05:56:53;2.60;;;2.40;;
57573;SDS011;68988;49.000;21.242;2024-02-26T05:59:18;1.80;;;1.70;;
57573;SDS011;68988;49.000;21.242;2024-02-26T06:01:44;1.80;;;1.70;;
57573;SDS011;68988;49.000;21.242;2024-02-26T06:04:09;3.53;;;1.55;;
57573;SDS011;68988;49.000;21.242;2024-02-26T06:06:34;1.85;;;1.40;;
57573;SDS011;68988;49.000;21.242;2024-02-26T06:09:00;1.63;;;1.50;;
57573;SDS011;68988;49.000;21.242;2024-02-26T06:11:25;1.30;;;1.20;;
57573;SDS011;68988;49.000;21.242;2024-02-26T06:13:50;1.92;;;1.23;;
57573;SDS011;68988;49.000;21.242;2024-02-26T06:16:16;2.05;;;1.65;;
57573;SDS011;68988;49.000;21.242;2024-02-26T06:18:41;1.73;;;1.45;;
57573;SDS011;68988;49.000;21.242;2024-02-26T06:21:10;2.13;;;1.20;;
57573;SDS011;68988;49.000;21.242;2024-02-26T06:23:36;1.27;;;1.17;;
57573;SDS011;68988;49.000;21.242;2024-02-26T06:26:01;1.25;;;1.13;;
57573;SDS011;68988;49.000;21.242;2024-02-26T06:28:27;1.27;;;1.15;;
57573;SDS011;68988;49.000;21.242;2024-02-26T06:30:55;6.22;;;1.27;;
57573;SDS011;68988;49.000;21.242;2024-02-26T06:33:20;2.25;;;1.10;;
57573;SDS011;68988;49.000;21.242;2024-02-26T06:35:46;1.58;;;1.30;;
57573;SDS011;68988;49.000;21.242;2024-02-26T06:38:11;1.17;;;1.08;;
57573;SDS011;68988;49.000;21.242;2024-02-26T06:40:38;1.00;;;1.00;;
57573;SDS011;68988;49.000;21.242;2024-02-26T06:43:04;1.10;;;1.00;;
57573;SDS011;68988;49.000;21.242;2024-02-26T06:45:29;4.78;;;1.42;;
57573;SDS011;68988;49.000;21.242;2024-02-26T06:47:55;6.30;;;1.40;;
57573;SDS011;68988;49.000;21.242;2024-02-26T06:50:21;1.13;;;1.02;;
57573;SDS011;68988;49.000;21.242;2024-02-26T06:52:47;4.43;;;1.05;;
57573;SDS011;68988;49.000;21.242;2024-02-26T06:55:12;12.10;;;1.55;;
57573;SDS011;68988;49.000;21.242;2024-02-26T06:57:38;1.30;;;1.20;;
57573;SDS011;68988;49.000;21.242;2024-02-26T07:00:04;1.10;;;1.08;;
57573;SDS011;68988;49.000;21.242;2024-02-26T07:02:30;1.73;;;1.30;;
57573;SDS011;68988;49.000;21.242;2024-02-26T07:04:56;3.10;;;1.40;;
57573;SDS011;68988;49.000;21.242;2024-02-26T07:07:23;1.85;;;1.20;;
57573;SDS011;68988;49.000;21.242;2024-02-26T07:09:51;1.30;;;1.20;;
57573;SDS011;68988;49.000;21.242;2024-02-26T07:12:16;1.35;;;1.25;;
57573;SDS011;68988;49.000;21.242;2024-02-26T07:14:42;1.77;;;0.98;;
57573;SDS011;68988;49.000;21.242;2024-02-26T07:17:08;5.05;;;1.10;;
57573;SDS011;68988;49.000;21.242;2024-02-26T07:19:33;1.10;;;0.98;;
57573;SDS011;68988;49.000;21.242;2024-02-26T07:21:59;1.33;;;1.15;;
57573;SDS011;68988;49.000;21.242;2024-02-26T07:24:27;4.00;;;1.20;;
57573;SDS011;68988;49.000;21.242;2024-02-26T07:26:53;1.33;;;1.10;;
57573;SDS011;68988;49.000;21.242;2024-02-26T07:29:20;2.03;;;1.10;;
57573;SDS011;68988;49.000;21.242;2024-02-26T07:31:46;1.20;;;1.10;;
57573;SDS011;68988;49.000;21.242;2024-02-26T07:34:12;2.03;;;0.88;;
57573;SDS011;68988;49.000;21.242;2024-02-26T07:36:37;5.88;;;1.00;;
57573;SDS011;68988;49.000;21.242;2024-02-26T07:39:02;5.03;;;1.10;;
57573;SDS011;68988;49.000;21.242;2024-02-26T07:41:28;1.08;;;0.95;;
57573;SDS011;68988;49.000;21.242;2024-02-26T07:43:53;6.18;;;0.90;;
57573;SDS011;68988;49.000;21.242;2024-02-26T07:46:19;1.05;;;0.98;;
57573;SDS011;68988;49.000;21.242;2024-02-26T07:48:44;3.97;;;1.20;;
57573;SDS011;68988;49.000;21.242;2024-02-26T07:51:11;3.15;;;1.50;;
57573;SDS011;68988;49.000;21.242;2024-02-26T07:53:38;1.67;;;1.30;;
57573;SDS011;68988;49.000;21.242;2024-02-26T07:56:03;6.60;;;1.25;;
57573;SDS011;68988;49.000;21.242;2024-02-26T07:58:29;6.18;;;1.15;;
57573;SDS011;68988;49.000;21.242;2024-02-26T08:00:54;3.25;;;1.20;;
57573;SDS011;68988;49.000;21.242;2024-02-26T08:03:19;5.15;;;1.10;;
57573;SDS011;68988;49.000;21.242;2024-02-26T08:05:45;5.07;;;1.40;;
57573;SDS011;68988;49.000;21.242;2024-02-26T08:08:10;3.15;;;1.00;;
57573;SDS011;68988;49.000;21.242;2024-02-26T08:10:35;1.55;;;1.05;;
57573;SDS011;68988;49.000;21.242;2024-02-26T08:13:01;2.55;;;1.15;;
57573;SDS011;68988;49.000;21.242;2024-02-26T08:15:32;3.88;;;1.20;;
57573;SDS011;68988;49.000;21.242;2024-02-26T08:17:59;4.03;;;1.10;;
57573;SDS011;68988;49.000;21.242;2024-02-26T08:20:27;2.75;;;1.00;;
57573;SDS011;68988;49.000;21.242;2024-02-26T08:22:53;2.05;;;1.30;;
57573;SDS011;68988;49.000;21.242;2024-02-26T08:25:18;1.20;;;1.10;;
57573;SDS011;68988;49.000;21.242;2024-02-26T08:27:44;1.48;;;1.20;;
57573;SDS011;68988;49.000;21.242;2024-02-26T08:30:09;5.40;;;1.10;;
57573;SDS011;68988;49.000;21.242;2024-02-26T08:32:35;3.65;;;1.02;;
57573;SDS011;68988;49.000;21.242;2024-02-26T08:35:01;3.45;;;1.30;;
57573;SDS011;68988;49.000;21.242;2024-02-26T08:37:26;2.60;;;1.40;;
57573;SDS011;68988;49.000;21.242;2024-02-26T08:39:52;1.90;;;1.58;;
57573;SDS011;68988;49.000;21.242;2024-02-26T08:42:17;1.98;;;1.48;;
57573;SDS011;68988;49.000;21.242;2024-02-26T08:44:42;1.08;;;1.02;;
57573;SDS011;68988;49.000;21.242;2024-02-26T08:47:08;6.35;;;1.40;;
57573;SDS011;68988;49.000;21.242;2024-02-26T08:49:33;1.88;;;1.10;;
57573;SDS011;68988;49.000;21.242;2024-02-26T08:51:59;2.95;;;1.50;;
57573;SDS011;68988;49.000;21.242;2024-02-26T08:54:24;6.28;;;1.63;;
57573;SDS011;68988;49.000;21.242;2024-02-26T08:56:49;2.42;;;1.55;;
57573;SDS011;68988;49.000;21.242;2024-02-26T08:59:15;2.45;;;1.60;;
57573;SDS011;68988;49.000;21.242;2024-02-26T09:01:41;5.07;;;1.70;;
57573;SDS011;68988;49.000;21.242;2024-02-26T09:04:07;4.30;;;1.63;;
57573;SDS011;68988;49.000;21.242;2024-02-26T09:06:32;5.47;;;1.50;;
57573;SDS011;68988;49.000;21.242;2024-02-26T09:08:57;4.85;;;1.52;;
57573;SDS011;68988;49.000;21.242;2024-02-26T09:11:23;9.50;;;2.00;;
57573;SDS011;68988;49.000;21.242;2024-02-26T09:13:48;9.93;;;1.95;;
57573;SDS011;68988;49.000;21.242;2024-02-26T09:16:14;6.38;;;1.65;;
57573;SDS011;68988;49.000;21.242;2024-02-26T09:18:39;5.80;;;1.50;;
57573;SDS011;68988;49.000;21.242;2024-02-26T09:21:04;3.40;;;1.65;;
57573;SDS011;68988;49.000;21.242;2024-02-26T09:23:31;8.18;;;1.52;;
57573;SDS011;68988;49.000;21.242;2024-02-26T09:25:56;7.03;;;1.60;;
57573;SDS011;68988;49.000;21.242;2024-02-26T09:28:22;5.30;;;2.45;;
57573;SDS011;68988;49.000;21.242;2024-02-26T09:30:48;6.72;;;2.92;;
57573;SDS011;68988;49.000;21.242;2024-02-26T09:33:14;8.40;;;3.28;;
57573;SDS011;68988;49.000;21.242;2024-02-26T09:35:39;11.02;;;3.05;;
57573;SDS011;68988;49.000;21.242;2024-02-26T09:38:05;9.45;;;3.08;;
57573;SDS011;68988;49.000;21.242;2024-02-26T09:40:30;7.68;;;2.75;;
57573;SDS011;68988;49.000;21.242;2024-02-26T09:42:59;9.73;;;3.00;;
57573;SDS011;68988;49.000;21.242;2024-02-26T09:45:26;3.67;;;2.53;;
57573;SDS011;68988;49.000;21.242;2024-02-26T09:47:53;3.13;;;2.80;;
57573;SDS011;68988;49.000;21.242;2024-02-26T09:50:21;6.60;;;2.88;;
57573;SDS011;68988;49.000;21.242;2024-02-26T09:52:47;4.05;;;2.92;;
57573;SDS011;68988;49.000;21.242;2024-02-26T09:55:14;6.47;;;2.70;;
57573;SDS011;68988;49.000;21.242;2024-02-26T09:57:42;8.27;;;2.90;;
57573;SDS011;68988;49.000;21.242;2024-02-26T10:00:10;3.65;;;2.78;;
57573;SDS011;68988;49.000;21.242;2024-02-26T10:02:43;6.05;;;2.45;;
57573;SDS011;68988;49.000;21.242;2024-02-26T10:05:10;3.30;;;2.75;;
57573;SDS011;68988;49.000;21.242;2024-02-26T10:07:39;4.80;;;2.80;;
57573;SDS011;68988;49.000;21.242;2024-02-26T10:10:05;8.48;;;3.13;;
57573;SDS011;68988;49.000;21.242;2024-02-26T10:12:31;6.78;;;2.50;;
57573;SDS011;68988;49.000;21.242;2024-02-26T10:14:57;4.18;;;2.60;;
57573;SDS011;68988;49.000;21.242;2024-02-26T10:17:22;9.57;;;3.10;;
57573;SDS011;68988;49.000;21.242;2024-02-26T10:19:48;5.47;;;2.67;;
57573;SDS011;68988;49.000;21.242;2024-02-26T10:22:16;6.25;;;2.80;;
57573;SDS011;68988;49.000;21.242;2024-02-26T10:24:41;8.48;;;2.92;;
57573;SDS011;68988;49.000;21.242;2024-02-26T10:27:06;6.47;;;2.30;;
57573;SDS011;68988;49.000;21.242;2024-02-26T10:29:34;8.18;;;2.60;;
57573;SDS011;68988;49.000;21.242;2024-02-26T10:31:59;4.30;;;2.58;;
57573;SDS011;68988;49.000;21.242;2024-02-26T10:34:25;5.72;;;2.78;;
57573;SDS011;68988;49.000;21.242;2024-02-26T10:36:51;2.72;;;2.30;;
57573;SDS011;68988;49.000;21.242;2024-02-26T10:39:16;4.03;;;2.42;;
57573;SDS011;68988;49.000;21.242;2024-02-26T10:41:43;10.90;;;3.40;;
57573;SDS011;68988;49.000;21.242;2024-02-26T10:44:10;4.32;;;2.28;;
57573;SDS011;68988;49.000;21.242;2024-02-26T10:46:37;4.13;;;2.25;;
57573;SDS011;68988;49.000;21.242;2024-02-26T10:49:02;3.65;;;2.30;;
57573;SDS011;68988;49.000;21.242;2024-02-26T10:51:30;5.15;;;2.28;;
57573;SDS011;68988;49.000;21.242;2024-02-26T10:53:56;6.60;;;2.60;;
57573;SDS011;68988;49.000;21.242;2024-02-26T10:56:30;8.25;;;2.70;;
57573;SDS011;68988;49.000;21.242;2024-02-26T10:58:59;5.25;;;2.50;;
57573;SDS011;68988;49.000;21.242;2024-02-26T11:01:26;5.45;;;2.33;;
57573;SDS011;68988;49.000;21.242;2024-02-26T11:03:54;4.88;;;2.58;;
57573;SDS011;68988;49.000;21.242;2024-02-26T11:06:20;10.73;;;2.70;;
57573;SDS011;68988;49.000;21.242;2024-02-26T11:08:49;4.80;;;2.22;;
57573;SDS011;68988;49.000;21.242;2024-02-26T11:11:16;6.82;;;2.33;;
57573;SDS011;68988;49.000;21.242;2024-02-26T11:13:46;3.78;;;2.72;;
57573;SDS011;68988;49.000;21.242;2024-02-26T11:18:46;5.43;;;2.55;;
57573;SDS011;68988;49.000;21.242;2024-02-26T11:21:15;3.58;;;2.47;;
57573;SDS011;68988;49.000;21.242;2024-02-26T11:23:43;6.00;;;2.40;;
57573;SDS011;68988;49.000;21.242;2024-02-26T11:26:10;2.92;;;2.20;;
57573;SDS011;68988;49.000;21.242;2024-02-26T11:28:36;5.00;;;2.63;;
57573;SDS011;68988;49.000;21.242;2024-02-26T11:31:03;7.97;;;2.60;;
57573;SDS011;68988;49.000;21.242;2024-02-26T11:33:29;3.35;;;2.40;;
57573;SDS011;68988;49.000;21.242;2024-02-26T11:35:55;5.63;;;2.60;;
57573;SDS011;68988;49.000;21.242;2024-02-26T11:38:21;3.47;;;2.85;;
57573;SDS011;68988;49.000;21.242;2024-02-26T11:40:48;8.18;;;2.90;;
57573;SDS011;68988;49.000;21.242;2024-02-26T11:43:15;3.88;;;2.50;;
57573;SDS011;68988;49.000;21.242;2024-02-26T11:48:11;5.15;;;2.78;;
57573;SDS011;68988;49.000;21.242;2024-02-26T11:50:47;3.58;;;2.60;;
57573;SDS011;68988;49.000;21.242;2024-02-26T11:53:21;4.72;;;2.42;;
57573;SDS011;68988;49.000;21.242;2024-02-26T11:55:47;9.32;;;2.63;;
57573;SDS011;68988;49.000;21.242;2024-02-26T11:58:12;9.25;;;2.75;;
57573;SDS011;68988;49.000;21.242;2024-02-26T12:00:41;7.25;;;3.03;;
57573;SDS011;68988;49.000;21.242;2024-02-26T12:03:07;5.28;;;2.50;;
57573;SDS011;68988;49.000;21.242;2024-02-26T12:05:35;3.88;;;2.60;;
57573;SDS011;68988;49.000;21.242;2024-02-26T12:08:03;3.15;;;2.55;;
57573;SDS011;68988;49.000;21.242;2024-02-26T12:10:32;8.15;;;2.75;;
57573;SDS011;68988;49.000;21.242;2024-02-26T12:13:13;6.47;;;2.70;;
57573;SDS011;68988;49.000;21.242;2024-02-26T12:15:56;5.57;;;2.50;;
57573;SDS011;68988;49.000;21.242;2024-02-26T12:18:23;3.25;;;2.20;;
57573;SDS011;68988;49.000;21.242;2024-02-26T12:20:58;4.43;;;2.33;;
57573;SDS011;68988;49.000;21.242;2024-02-26T12:23:27;5.85;;;2.65;;
57573;SDS011;68988;49.000;21.242;2024-02-26T12:25:53;6.13;;;2.40;;
57573;SDS011;68988;49.000;21.242;2024-02-26T12:28:19;3.50;;;2.25;;
57573;SDS011;68988;49.000;21.242;2024-02-26T12:30:44;8.00;;;2.40;;
57573;SDS011;68988;49.000;21.242;2024-02-26T12:33:11;5.53;;;2.08;;
57573;SDS011;68988;49.000;21.242;2024-02-26T12:35:36;6.28;;;2.53;;
57573;SDS011;68988;49.000;21.242;2024-02-26T12:38:02;5.28;;;2.60;;
57573;SDS011;68988;49.000;21.242;2024-02-26T12:40:29;2.53;;;2.17;;
57573;SDS011;68988;49.000;21.242;2024-02-26T12:42:55;2.80;;;2.22;;
57573;SDS011;68988;49.000;21.242;2024-02-26T12:45:20;5.40;;;2.30;;
57573;SDS011;68988;49.000;21.242;2024-02-26T12:47:46;3.53;;;2.88;;
57573;SDS011;68988;49.000;21.242;2024-02-26T12:50:12;4.32;;;2.38;;
57573;SDS011;68988;49.000;21.242;2024-02-26T12:52:43;5.35;;;2.25;;
57573;SDS011;68988;49.000;21.242;2024-02-26T12:55:11;4.78;;;2.70;;
57573;SDS011;68988;49.000;21.242;2024-02-26T12:57:39;13.30;;;2.40;;
57573;SDS011;68988;49.000;21.242;2024-02-26T13:00:08;5.68;;;2.17;;
57573;SDS011;68988;49.000;21.242;2024-02-26T13:02:38;5.65;;;2.80;;
57573;SDS011;68988;49.000;21.242;2024-02-26T13:05:05;5.95;;;2.60;;
57573;SDS011;68988;49.000;21.242;2024-02-26T13:07:32;7.15;;;2.47;;
57573;SDS011;68988;49.000;21.242;2024-02-26T13:09:58;3.50;;;2.15;;
57573;SDS011;68988;49.000;21.242;2024-02-26T13:12:23;5.30;;;2.25;;
57573;SDS011;68988;49.000;21.242;2024-02-26T13:14:58;5.38;;;2.30;;
57573;SDS011;68988;49.000;21.242;2024-02-26T13:17:33;5.53;;;2.40;;
57573;SDS011;68988;49.000;21.242;2024-02-26T13:19:59;6.13;;;2.63;;
57573;SDS011;68988;49.000;21.242;2024-02-26T13:22:24;9.52;;;2.35;;
57573;SDS011;68988;49.000;21.242;2024-02-26T13:24:53;5.72;;;2.22;;
57573;SDS011;68988;49.000;21.242;2024-02-26T13:27:22;7.07;;;2.50;;
57573;SDS011;68988;49.000;21.242;2024-02-26T13:29:48;2.88;;;2.60;;
57573;SDS011;68988;49.000;21.242;2024-02-26T13:32:14;4.65;;;2.13;;
57573;SDS011;68988;49.000;21.242;2024-02-26T13:34:39;11.25;;;2.33;;
57573;SDS011;68988;49.000;21.242;2024-02-26T13:37:05;5.95;;;2.47;;
57573;SDS011;68988;49.000;21.242;2024-02-26T13:39:30;9.10;;;2.38;;
57573;SDS011;68988;49.000;21.242;2024-02-26T13:41:56;3.47;;;2.47;;
57573;SDS011;68988;49.000;21.242;2024-02-26T13:44:22;3.97;;;2.15;;
57573;SDS011;68988;49.000;21.242;2024-02-26T13:46:48;3.67;;;1.80;;
57573;SDS011;68988;49.000;21.242;2024-02-26T13:49:17;5.68;;;2.20;;
57573;SDS011;68988;49.000;21.242;2024-02-26T13:51:42;3.50;;;2.30;;
57573;SDS011;68988;49.000;21.242;2024-02-26T13:54:07;2.22;;;2.03;;
57573;SDS011;68988;49.000;21.242;2024-02-26T13:56:34;7.88;;;2.22;;
57573;SDS011;68988;49.000;21.242;2024-02-26T13:59:00;18.13;;;2.47;;
57573;SDS011;68988;49.000;21.242;2024-02-26T14:01:25;7.28;;;2.28;;
57573;SDS011;68988;49.000;21.242;2024-02-26T14:03:51;5.80;;;2.47;;
57573;SDS011;68988;49.000;21.242;2024-02-26T14:06:18;6.90;;;2.38;;
57573;SDS011;68988;49.000;21.242;2024-02-26T14:08:44;9.50;;;2.97;;
57573;SDS011;68988;49.000;21.242;2024-02-26T14:11:10;3.85;;;2.92;;
57573;SDS011;68988;49.000;21.242;2024-02-26T14:13:35;3.83;;;2.35;;
57573;SDS011;68988;49.000;21.242;2024-02-26T14:16:00;5.25;;;2.50;;
57573;SDS011;68988;49.000;21.242;2024-02-26T14:18:26;6.88;;;2.63;;
57573;SDS011;68988;49.000;21.242;2024-02-26T14:20:52;9.98;;;3.03;;
57573;SDS011;68988;49.000;21.242;2024-02-26T14:23:17;7.38;;;2.40;;
57573;SDS011;68988;49.000;21.242;2024-02-26T14:25:43;6.13;;;2.42;;
57573;SDS011;68988;49.000;21.242;2024-02-26T14:28:08;11.13;;;2.45;;
57573;SDS011;68988;49.000;21.242;2024-02-26T14:30:34;7.82;;;2.40;;
57573;SDS011;68988;49.000;21.242;2024-02-26T14:32:59;4.93;;;2.85;;